This is the latest recevied weather packets stored in our database for station/object W8DRH-13. If no packets are shown the sender has not sent any weather packets the latest 10 day(s).
| Time | Temp. | Humidity | Pressure | Rain* | Wind** | Luminosity | Snow |
|---|---|---|---|---|---|---|---|
| 1777825882 | 13.89° C | 50% | 1014 hPa | 0 mm | - | 729 W/m² | - |
| 1777825579 | 13.33° C | 49% | 1014.2 hPa | 0 mm | - | 730 W/m² | - |
| 1777825276 | 13.33° C | 49% | 1014.1 hPa | 0 mm | - | 740 W/m² | - |
| 1777824973 | 13.33° C | 52% | 1014.4 hPa | 0 mm | - | 720 W/m² | - |
| 1777824669 | 13.33° C | 49% | 1014.4 hPa | 0 mm | - | 727 W/m² | - |
| 1777824366 | 12.78° C | 50% | 1014.5 hPa | 0 mm | - | 720 W/m² | - |
| 1777824061 | 13.33° C | 50% | 1014.5 hPa | 0 mm | - | 736 W/m² | - |
| 1777823758 | 13.33° C | 49% | 1014.8 hPa | 0 mm | - | 738 W/m² | - |
| 1777823456 | 12.78° C | 50% | 1014.3 hPa | 0 mm | - | 761 W/m² | - |
| 1777823153 | 12.78° C | 50% | 1014.5 hPa | 0 mm | - | 744 W/m² | - |
| 1777822850 | 12.78° C | 51% | 1014.4 hPa | 0 mm | - | 746 W/m² | - |
| 1777822548 | 12.22° C | 51% | 1014.6 hPa | 0 mm | - | 743 W/m² | - |
| 1777822245 | 12.22° C | 51% | 1014.8 hPa | 0 mm | - | 696 W/m² | - |
| 1777821943 | 12.78° C | 51% | 1015 hPa | 0 mm | - | 711 W/m² | - |
| 1777821641 | 12.22° C | 50% | 1014.6 hPa | 0 mm | - | 753 W/m² | - |
| 1777821339 | 11.67° C | 50% | 1014.5 hPa | 0 mm | - | 765 W/m² | - |
| 1777821035 | 12.22° C | 49% | 1014.8 hPa | 0 mm | - | 744 W/m² | - |
| 1777820731 | 12.22° C | 52% | 1014.9 hPa | 0 mm | - | 717 W/m² | - |
| 1777820428 | 11.67° C | 51% | 1014.9 hPa | 0 mm | - | 717 W/m² | - |
| 1777820125 | 12.22° C | 50% | 1014.9 hPa | 0 mm | - | 731 W/m² | - |
| 1777819822 | 11.67° C | 54% | 1015.1 hPa | 0 mm | - | 727 W/m² | - |
| 1777819520 | 11.67° C | 51% | 1015 hPa | 0 mm | - | 726 W/m² | - |
| 1777819217 | 11.67° C | 52% | 1014.9 hPa | 0 mm | - | 716 W/m² | - |
| 1777818914 | 11.67° C | 54% | 1014.8 hPa | 0 mm | - | 694 W/m² | - |
| 1777818610 | 11.11° C | 55% | 1014.9 hPa | 0 mm | - | 675 W/m² | - |
* Rain latest hour (hover to see other rain measurements)
** Current wind speed in m/s (hover to see current wind gust speed)